sensor_id;sensor_type;location;lat;lon;timestamp;temperature;humidity
32476;DHT22;18929;48.008;10.882;2023-05-24T00:00:54;14.10;99.90
32476;DHT22;18929;48.008;10.882;2023-05-24T00:03:23;14.30;99.90
32476;DHT22;18929;48.008;10.882;2023-05-24T00:05:49;15.20;99.90
32476;DHT22;18929;48.008;10.882;2023-05-24T00:08:16;15.70;99.90
32476;DHT22;18929;48.008;10.882;2023-05-24T00:10:43;15.90;99.90
32476;DHT22;18929;48.008;10.882;2023-05-24T00:13:10;16.50;99.90
32476;DHT22;18929;48.008;10.882;2023-05-24T00:15:37;16.20;99.90
32476;DHT22;18929;48.008;10.882;2023-05-24T00:18:04;15.20;99.90
32476;DHT22;18929;48.008;10.882;2023-05-24T00:20:32;15.10;99.90
32476;DHT22;18929;48.008;10.882;2023-05-24T00:22:59;15.10;99.90
32476;DHT22;18929;48.008;10.882;2023-05-24T00:25:26;14.10;99.90
32476;DHT22;18929;48.008;10.882;2023-05-24T00:27:53;14.30;99.90
32476;DHT22;18929;48.008;10.882;2023-05-24T00:30:19;14.80;99.90
32476;DHT22;18929;48.008;10.882;2023-05-24T00:32:46;14.60;99.90
32476;DHT22;18929;48.008;10.882;2023-05-24T00:35:13;15.50;99.90
32476;DHT22;18929;48.008;10.882;2023-05-24T00:37:41;16.30;99.90
32476;DHT22;18929;48.008;10.882;2023-05-24T00:40:09;16.20;99.90
32476;DHT22;18929;48.008;10.882;2023-05-24T00:42:37;16.00;99.90
32476;DHT22;18929;48.008;10.882;2023-05-24T00:45:04;15.70;99.90
32476;DHT22;18929;48.008;10.882;2023-05-24T00:47:32;16.30;99.90
32476;DHT22;18929;48.008;10.882;2023-05-24T00:49:59;15.60;99.90
32476;DHT22;18929;48.008;10.882;2023-05-24T00:52:26;15.90;99.90
32476;DHT22;18929;48.008;10.882;2023-05-24T00:54:54;15.80;99.90
32476;DHT22;18929;48.008;10.882;2023-05-24T00:57:21;15.50;99.90
32476;DHT22;18929;48.008;10.882;2023-05-24T00:59:48;15.50;99.90
32476;DHT22;18929;48.008;10.882;2023-05-24T01:02:15;14.50;99.90
32476;DHT22;18929;48.008;10.882;2023-05-24T01:04:42;14.60;99.90
32476;DHT22;18929;48.008;10.882;2023-05-24T01:07:12;15.50;99.90
32476;DHT22;18929;48.008;10.882;2023-05-24T01:09:46;15.40;99.90
32476;DHT22;18929;48.008;10.882;2023-05-24T01:12:22;13.70;99.90
32476;DHT22;18929;48.008;10.882;2023-05-24T01:14:54;13.70;99.90
32476;DHT22;18929;48.008;10.882;2023-05-24T01:17:25;14.90;99.90
32476;DHT22;18929;48.008;10.882;2023-05-24T01:19:53;15.20;99.90
32476;DHT22;18929;48.008;10.882;2023-05-24T01:22:35;15.80;99.90
32476;DHT22;18929;48.008;10.882;2023-05-24T01:25:06;16.40;99.90
32476;DHT22;18929;48.008;10.882;2023-05-24T01:27:36;16.70;99.90
32476;DHT22;18929;48.008;10.882;2023-05-24T01:30:04;16.10;99.90
32476;DHT22;18929;48.008;10.882;2023-05-24T01:32:31;15.40;99.90
32476;DHT22;18929;48.008;10.882;2023-05-24T01:34:58;14.60;99.90
32476;DHT22;18929;48.008;10.882;2023-05-24T01:37:25;14.20;99.90
32476;DHT22;18929;48.008;10.882;2023-05-24T01:39:52;14.30;99.90
32476;DHT22;18929;48.008;10.882;2023-05-24T01:42:22;14.50;99.90
32476;DHT22;18929;48.008;10.882;2023-05-24T01:44:54;14.90;99.90
32476;DHT22;18929;48.008;10.882;2023-05-24T01:47:27;14.30;99.90
32476;DHT22;18929;48.008;10.882;2023-05-24T01:49:58;14.10;99.90
32476;DHT22;18929;48.008;10.882;2023-05-24T01:52:26;14.90;99.90
32476;DHT22;18929;48.008;10.882;2023-05-24T01:54:55;14.90;99.90
32476;DHT22;18929;48.008;10.882;2023-05-24T01:57:22;14.60;99.90
32476;DHT22;18929;48.008;10.882;2023-05-24T01:59:49;14.60;99.90
32476;DHT22;18929;48.008;10.882;2023-05-24T02:02:18;14.80;99.90
32476;DHT22;18929;48.008;10.882;2023-05-24T02:04:45;15.20;99.90
32476;DHT22;18929;48.008;10.882;2023-05-24T02:07:11;15.10;99.90
32476;DHT22;18929;48.008;10.882;2023-05-24T02:09:38;14.90;99.90
32476;DHT22;18929;48.008;10.882;2023-05-24T02:12:05;14.40;99.90
32476;DHT22;18929;48.008;10.882;2023-05-24T02:14:33;14.50;99.90
32476;DHT22;18929;48.008;10.882;2023-05-24T02:17:02;14.70;99.90
32476;DHT22;18929;48.008;10.882;2023-05-24T02:19:31;14.80;99.90
32476;DHT22;18929;48.008;10.882;2023-05-24T02:22:01;14.80;99.90
32476;DHT22;18929;48.008;10.882;2023-05-24T02:24:28;13.90;99.90
32476;DHT22;18929;48.008;10.882;2023-05-24T02:26:54;14.80;99.90
32476;DHT22;18929;48.008;10.882;2023-05-24T02:29:21;15.20;99.90
32476;DHT22;18929;48.008;10.882;2023-05-24T02:31:48;13.90;99.90
32476;DHT22;18929;48.008;10.882;2023-05-24T02:34:19;14.30;99.90
32476;DHT22;18929;48.008;10.882;2023-05-24T02:36:48;13.80;99.90
32476;DHT22;18929;48.008;10.882;2023-05-24T02:39:15;14.20;99.90
32476;DHT22;18929;48.008;10.882;2023-05-24T02:41:42;13.50;99.90
32476;DHT22;18929;48.008;10.882;2023-05-24T02:44:09;13.60;99.90
32476;DHT22;18929;48.008;10.882;2023-05-24T02:46:36;13.70;99.90
32476;DHT22;18929;48.008;10.882;2023-05-24T02:49:03;13.90;99.90
32476;DHT22;18929;48.008;10.882;2023-05-24T02:51:30;13.80;99.90
32476;DHT22;18929;48.008;10.882;2023-05-24T02:53:59;14.40;99.90
32476;DHT22;18929;48.008;10.882;2023-05-24T02:56:26;14.30;99.90
32476;DHT22;18929;48.008;10.882;2023-05-24T02:58:53;13.60;99.90
32476;DHT22;18929;48.008;10.882;2023-05-24T03:01:20;14.10;99.90
32476;DHT22;18929;48.008;10.882;2023-05-24T03:03:47;13.90;99.90
32476;DHT22;18929;48.008;10.882;2023-05-24T03:06:14;14.30;99.90
32476;DHT22;18929;48.008;10.882;2023-05-24T03:08:41;13.80;99.90
32476;DHT22;18929;48.008;10.882;2023-05-24T03:11:09;13.80;99.90
32476;DHT22;18929;48.008;10.882;2023-05-24T03:13:35;14.50;99.90
32476;DHT22;18929;48.008;10.882;2023-05-24T03:16:02;14.30;99.90
32476;DHT22;18929;48.008;10.882;2023-05-24T03:18:29;14.00;99.90
32476;DHT22;18929;48.008;10.882;2023-05-24T03:20:56;13.90;99.90
32476;DHT22;18929;48.008;10.882;2023-05-24T03:23:23;14.80;99.90
32476;DHT22;18929;48.008;10.882;2023-05-24T03:25:50;14.00;99.90
32476;DHT22;18929;48.008;10.882;2023-05-24T03:28:18;14.20;99.90
32476;DHT22;18929;48.008;10.882;2023-05-24T03:30:46;13.70;99.90
32476;DHT22;18929;48.008;10.882;2023-05-24T03:33:13;13.80;99.90
32476;DHT22;18929;48.008;10.882;2023-05-24T03:35:40;14.60;99.90
32476;DHT22;18929;48.008;10.882;2023-05-24T03:38:07;14.20;99.90
32476;DHT22;18929;48.008;10.882;2023-05-24T03:40:33;12.90;99.90
32476;DHT22;18929;48.008;10.882;2023-05-24T03:43:01;12.60;99.90
32476;DHT22;18929;48.008;10.882;2023-05-24T03:45:29;12.40;99.90
32476;DHT22;18929;48.008;10.882;2023-05-24T03:47:56;12.50;99.90
32476;DHT22;18929;48.008;10.882;2023-05-24T03:50:23;12.70;99.90
32476;DHT22;18929;48.008;10.882;2023-05-24T03:52:49;13.30;99.90
32476;DHT22;18929;48.008;10.882;2023-05-24T03:55:17;12.50;99.90
32476;DHT22;18929;48.008;10.882;2023-05-24T03:57:44;12.20;99.90
32476;DHT22;18929;48.008;10.882;2023-05-24T04:00:11;12.20;99.90
32476;DHT22;18929;48.008;10.882;2023-05-24T04:02:40;12.00;99.90
32476;DHT22;18929;48.008;10.882;2023-05-24T04:05:07;12.40;99.90
32476;DHT22;18929;48.008;10.882;2023-05-24T04:07:35;12.10;99.90
32476;DHT22;18929;48.008;10.882;2023-05-24T04:10:02;12.70;99.90
32476;DHT22;18929;48.008;10.882;2023-05-24T04:12:29;13.40;99.90
32476;DHT22;18929;48.008;10.882;2023-05-24T04:14:56;13.10;99.90
32476;DHT22;18929;48.008;10.882;2023-05-24T04:17:23;12.80;99.90
32476;DHT22;18929;48.008;10.882;2023-05-24T04:19:51;12.90;99.90
32476;DHT22;18929;48.008;10.882;2023-05-24T04:22:26;13.10;99.90
32476;DHT22;18929;48.008;10.882;2023-05-24T04:24:53;13.00;99.90
32476;DHT22;18929;48.008;10.882;2023-05-24T04:27:20;12.20;99.90
32476;DHT22;18929;48.008;10.882;2023-05-24T04:29:46;12.30;99.90
32476;DHT22;18929;48.008;10.882;2023-05-24T04:32:14;12.10;99.90
32476;DHT22;18929;48.008;10.882;2023-05-24T04:34:43;12.60;99.90
32476;DHT22;18929;48.008;10.882;2023-05-24T04:37:11;12.30;99.90
32476;DHT22;18929;48.008;10.882;2023-05-24T04:39:41;11.90;99.90
32476;DHT22;18929;48.008;10.882;2023-05-24T04:42:08;11.90;99.90
32476;DHT22;18929;48.008;10.882;2023-05-24T04:44:38;12.00;99.90
32476;DHT22;18929;48.008;10.882;2023-05-24T04:47:05;11.80;99.90
32476;DHT22;18929;48.008;10.882;2023-05-24T04:49:33;12.20;99.90
32476;DHT22;18929;48.008;10.882;2023-05-24T04:52:00;12.60;99.90
32476;DHT22;18929;48.008;10.882;2023-05-24T04:54:28;12.90;99.90
32476;DHT22;18929;48.008;10.882;2023-05-24T04:56:55;13.00;99.90
32476;DHT22;18929;48.008;10.882;2023-05-24T04:59:22;13.20;99.90
32476;DHT22;18929;48.008;10.882;2023-05-24T05:01:49;12.70;99.90
32476;DHT22;18929;48.008;10.882;2023-05-24T05:04:15;12.00;99.90
32476;DHT22;18929;48.008;10.882;2023-05-24T05:06:42;12.00;99.90
32476;DHT22;18929;48.008;10.882;2023-05-24T05:09:09;11.90;99.90
32476;DHT22;18929;48.008;10.882;2023-05-24T05:11:39;11.80;99.90
32476;DHT22;18929;48.008;10.882;2023-05-24T05:14:06;12.30;99.90
32476;DHT22;18929;48.008;10.882;2023-05-24T05:16:34;12.70;99.90
32476;DHT22;18929;48.008;10.882;2023-05-24T05:19:01;12.80;99.90
32476;DHT22;18929;48.008;10.882;2023-05-24T05:21:29;12.70;99.90
32476;DHT22;18929;48.008;10.882;2023-05-24T05:23:57;12.90;99.90
32476;DHT22;18929;48.008;10.882;2023-05-24T05:26:24;13.40;99.90
32476;DHT22;18929;48.008;10.882;2023-05-24T05:28:52;12.80;99.90
32476;DHT22;18929;48.008;10.882;2023-05-24T05:31:20;13.80;99.90
32476;DHT22;18929;48.008;10.882;2023-05-24T05:33:46;13.50;99.90
32476;DHT22;18929;48.008;10.882;2023-05-24T05:36:13;13.50;99.90
32476;DHT22;18929;48.008;10.882;2023-05-24T05:38:40;13.90;99.90
32476;DHT22;18929;48.008;10.882;2023-05-24T05:41:07;12.60;99.90
32476;DHT22;18929;48.008;10.882;2023-05-24T05:43:34;12.40;99.90
32476;DHT22;18929;48.008;10.882;2023-05-24T05:46:03;12.10;99.90
32476;DHT22;18929;48.008;10.882;2023-05-24T05:48:29;12.00;99.90
32476;DHT22;18929;48.008;10.882;2023-05-24T05:50:56;12.80;99.90
32476;DHT22;18929;48.008;10.882;2023-05-24T05:53:23;13.20;99.90
32476;DHT22;18929;48.008;10.882;2023-05-24T05:55:50;13.30;99.90
32476;DHT22;18929;48.008;10.882;2023-05-24T05:58:17;13.10;99.90
32476;DHT22;18929;48.008;10.882;2023-05-24T06:00:44;12.80;99.90
32476;DHT22;18929;48.008;10.882;2023-05-24T06:03:12;12.40;99.90
32476;DHT22;18929;48.008;10.882;2023-05-24T06:05:39;12.10;99.90
32476;DHT22;18929;48.008;10.882;2023-05-24T06:08:05;13.40;99.90
32476;DHT22;18929;48.008;10.882;2023-05-24T06:10:32;13.50;99.90
32476;DHT22;18929;48.008;10.882;2023-05-24T06:13:00;14.00;99.90
32476;DHT22;18929;48.008;10.882;2023-05-24T06:15:27;13.60;99.90
32476;DHT22;18929;48.008;10.882;2023-05-24T06:17:53;13.60;99.90
32476;DHT22;18929;48.008;10.882;2023-05-24T06:20:22;14.20;99.90
32476;DHT22;18929;48.008;10.882;2023-05-24T06:22:48;14.10;99.90
32476;DHT22;18929;48.008;10.882;2023-05-24T06:25:15;13.90;99.90
32476;DHT22;18929;48.008;10.882;2023-05-24T06:27:44;13.70;99.90
32476;DHT22;18929;48.008;10.882;2023-05-24T06:30:11;13.20;99.90
32476;DHT22;18929;48.008;10.882;2023-05-24T06:32:38;14.00;99.90
32476;DHT22;18929;48.008;10.882;2023-05-24T06:35:05;14.40;99.90
32476;DHT22;18929;48.008;10.882;2023-05-24T06:37:33;14.50;99.90
32476;DHT22;18929;48.008;10.882;2023-05-24T06:40:00;14.80;99.90
32476;DHT22;18929;48.008;10.882;2023-05-24T06:42:29;14.70;99.90
32476;DHT22;18929;48.008;10.882;2023-05-24T06:44:55;14.90;99.90
32476;DHT22;18929;48.008;10.882;2023-05-24T06:47:22;14.10;99.90
32476;DHT22;18929;48.008;10.882;2023-05-24T06:49:49;13.90;99.90
32476;DHT22;18929;48.008;10.882;2023-05-24T06:52:16;14.50;99.90
32476;DHT22;18929;48.008;10.882;2023-05-24T06:54:44;14.60;99.90
32476;DHT22;18929;48.008;10.882;2023-05-24T06:57:11;14.70;99.90
32476;DHT22;18929;48.008;10.882;2023-05-24T06:59:37;14.10;99.90
32476;DHT22;18929;48.008;10.882;2023-05-24T07:02:04;13.50;99.90
32476;DHT22;18929;48.008;10.882;2023-05-24T07:04:32;14.10;99.90
32476;DHT22;18929;48.008;10.882;2023-05-24T07:06:59;13.90;99.90
32476;DHT22;18929;48.008;10.882;2023-05-24T07:09:26;14.20;99.90
32476;DHT22;18929;48.008;10.882;2023-05-24T07:11:54;14.40;99.90
32476;DHT22;18929;48.008;10.882;2023-05-24T07:14:21;13.60;99.90
32476;DHT22;18929;48.008;10.882;2023-05-24T07:16:50;13.50;99.90
32476;DHT22;18929;48.008;10.882;2023-05-24T07:19:17;13.00;99.90
32476;DHT22;18929;48.008;10.882;2023-05-24T07:21:45;13.70;99.90
32476;DHT22;18929;48.008;10.882;2023-05-24T07:24:12;13.90;99.90
32476;DHT22;18929;48.008;10.882;2023-05-24T07:26:39;12.80;99.90
32476;DHT22;18929;48.008;10.882;2023-05-24T07:29:07;13.80;99.90
32476;DHT22;18929;48.008;10.882;2023-05-24T07:31:34;14.40;99.90
32476;DHT22;18929;48.008;10.882;2023-05-24T07:34:01;14.40;99.90
32476;DHT22;18929;48.008;10.882;2023-05-24T07:36:28;14.30;99.90
32476;DHT22;18929;48.008;10.882;2023-05-24T07:38:56;12.80;99.90
32476;DHT22;18929;48.008;10.882;2023-05-24T07:41:24;12.80;99.90
32476;DHT22;18929;48.008;10.882;2023-05-24T07:43:51;13.00;99.90
32476;DHT22;18929;48.008;10.882;2023-05-24T07:46:19;14.00;99.90
32476;DHT22;18929;48.008;10.882;2023-05-24T07:48:46;14.00;99.90
32476;DHT22;18929;48.008;10.882;2023-05-24T07:51:13;12.90;99.90
32476;DHT22;18929;48.008;10.882;2023-05-24T07:53:39;13.20;99.90
32476;DHT22;18929;48.008;10.882;2023-05-24T07:56:06;13.10;99.90
32476;DHT22;18929;48.008;10.882;2023-05-24T07:58:34;13.30;99.90
32476;DHT22;18929;48.008;10.882;2023-05-24T08:01:01;13.10;99.90
32476;DHT22;18929;48.008;10.882;2023-05-24T08:03:29;13.00;99.90
32476;DHT22;18929;48.008;10.882;2023-05-24T08:05:56;13.50;99.90
32476;DHT22;18929;48.008;10.882;2023-05-24T08:08:22;13.40;99.90
32476;DHT22;18929;48.008;10.882;2023-05-24T08:10:50;12.90;99.90
32476;DHT22;18929;48.008;10.882;2023-05-24T08:13:16;12.70;99.90
32476;DHT22;18929;48.008;10.882;2023-05-24T08:15:43;13.00;99.90
32476;DHT22;18929;48.008;10.882;2023-05-24T08:18:10;12.40;99.90
32476;DHT22;18929;48.008;10.882;2023-05-24T08:20:38;12.70;99.90
32476;DHT22;18929;48.008;10.882;2023-05-24T08:23:05;12.80;99.90
32476;DHT22;18929;48.008;10.882;2023-05-24T08:25:34;12.10;99.90
32476;DHT22;18929;48.008;10.882;2023-05-24T08:28:01;13.10;99.90
32476;DHT22;18929;48.008;10.882;2023-05-24T08:30:28;13.10;99.90
32476;DHT22;18929;48.008;10.882;2023-05-24T08:32:55;13.60;99.90
32476;DHT22;18929;48.008;10.882;2023-05-24T08:35:22;12.60;99.90
32476;DHT22;18929;48.008;10.882;2023-05-24T08:37:50;12.70;99.90
32476;DHT22;18929;48.008;10.882;2023-05-24T08:40:17;12.10;99.90
32476;DHT22;18929;48.008;10.882;2023-05-24T08:42:44;12.20;99.90
32476;DHT22;18929;48.008;10.882;2023-05-24T08:45:12;12.90;99.90
32476;DHT22;18929;48.008;10.882;2023-05-24T08:47:39;13.10;99.90
32476;DHT22;18929;48.008;10.882;2023-05-24T08:50:06;12.80;99.90
32476;DHT22;18929;48.008;10.882;2023-05-24T08:52:34;13.30;99.90
32476;DHT22;18929;48.008;10.882;2023-05-24T08:55:02;13.20;99.90
32476;DHT22;18929;48.008;10.882;2023-05-24T08:57:30;13.30;99.90
32476;DHT22;18929;48.008;10.882;2023-05-24T08:59:59;12.60;99.90
32476;DHT22;18929;48.008;10.882;2023-05-24T09:02:25;13.20;99.90
32476;DHT22;18929;48.008;10.882;2023-05-24T09:04:52;13.20;99.90
32476;DHT22;18929;48.008;10.882;2023-05-24T09:07:20;13.00;99.90
32476;DHT22;18929;48.008;10.882;2023-05-24T09:09:49;13.20;99.90
32476;DHT22;18929;48.008;10.882;2023-05-24T09:12:20;13.00;99.90
32476;DHT22;18929;48.008;10.882;2023-05-24T09:14:47;14.00;99.90
32476;DHT22;18929;48.008;10.882;2023-05-24T09:17:14;13.90;99.90
32476;DHT22;18929;48.008;10.882;2023-05-24T09:19:43;13.50;99.90
32476;DHT22;18929;48.008;10.882;2023-05-24T09:22:11;12.50;99.90
32476;DHT22;18929;48.008;10.882;2023-05-24T09:24:41;12.70;99.90
32476;DHT22;18929;48.008;10.882;2023-05-24T09:27:08;12.70;99.90
32476;DHT22;18929;48.008;10.882;2023-05-24T09:29:36;12.70;99.90
32476;DHT22;18929;48.008;10.882;2023-05-24T09:32:06;13.50;99.90
32476;DHT22;18929;48.008;10.882;2023-05-24T09:34:36;13.30;99.90
32476;DHT22;18929;48.008;10.882;2023-05-24T09:37:04;13.00;99.90
32476;DHT22;18929;48.008;10.882;2023-05-24T09:39:31;13.20;99.90
32476;DHT22;18929;48.008;10.882;2023-05-24T09:41:58;13.00;99.90
32476;DHT22;18929;48.008;10.882;2023-05-24T09:44:25;13.00;99.90
32476;DHT22;18929;48.008;10.882;2023-05-24T09:46:53;13.00;99.90
32476;DHT22;18929;48.008;10.882;2023-05-24T09:49:27;12.00;99.90
32476;DHT22;18929;48.008;10.882;2023-05-24T09:51:54;12.00;99.90
32476;DHT22;18929;48.008;10.882;2023-05-24T09:54:20;12.90;99.90
32476;DHT22;18929;48.008;10.882;2023-05-24T09:56:47;13.30;99.90
32476;DHT22;18929;48.008;10.882;2023-05-24T09:59:14;13.50;99.90
32476;DHT22;18929;48.008;10.882;2023-05-24T10:01:41;14.20;99.90
32476;DHT22;18929;48.008;10.882;2023-05-24T10:04:09;14.00;99.90
32476;DHT22;18929;48.008;10.882;2023-05-24T10:06:36;13.70;99.90
32476;DHT22;18929;48.008;10.882;2023-05-24T10:09:04;13.90;99.90
32476;DHT22;18929;48.008;10.882;2023-05-24T10:11:32;13.70;99.90
32476;DHT22;18929;48.008;10.882;2023-05-24T10:13:59;13.50;99.90
32476;DHT22;18929;48.008;10.882;2023-05-24T10:16:26;13.50;99.90
32476;DHT22;18929;48.008;10.882;2023-05-24T10:18:53;13.50;99.90
32476;DHT22;18929;48.008;10.882;2023-05-24T10:21:23;12.80;99.90
32476;DHT22;18929;48.008;10.882;2023-05-24T10:23:50;13.60;99.90
32476;DHT22;18929;48.008;10.882;2023-05-24T10:26:18;13.40;99.90
32476;DHT22;18929;48.008;10.882;2023-05-24T10:28:46;12.70;99.90
32476;DHT22;18929;48.008;10.882;2023-05-24T10:31:14;12.80;99.90
32476;DHT22;18929;48.008;10.882;2023-05-24T10:33:43;12.90;99.90
32476;DHT22;18929;48.008;10.882;2023-05-24T10:36:12;13.30;99.90
32476;DHT22;18929;48.008;10.882;2023-05-24T10:38:42;13.10;99.90
32476;DHT22;18929;48.008;10.882;2023-05-24T10:41:08;13.20;99.90
32476;DHT22;18929;48.008;10.882;2023-05-24T10:43:37;14.00;99.90
32476;DHT22;18929;48.008;10.882;2023-05-24T10:46:06;13.70;99.90
32476;DHT22;18929;48.008;10.882;2023-05-24T10:48:34;13.40;99.90
32476;DHT22;18929;48.008;10.882;2023-05-24T10:53:49;14.10;99.90
32476;DHT22;18929;48.008;10.882;2023-05-24T10:56:16;14.00;99.90
32476;DHT22;18929;48.008;10.882;2023-05-24T10:58:57;13.60;99.90
32476;DHT22;18929;48.008;10.882;2023-05-24T11:01:24;13.00;99.90
32476;DHT22;18929;48.008;10.882;2023-05-24T11:03:52;13.30;99.90
32476;DHT22;18929;48.008;10.882;2023-05-24T11:06:19;13.30;99.90
32476;DHT22;18929;48.008;10.882;2023-05-24T11:08:46;13.20;99.90
32476;DHT22;18929;48.008;10.882;2023-05-24T11:11:14;13.60;99.90
32476;DHT22;18929;48.008;10.882;2023-05-24T11:13:41;13.10;99.90
32476;DHT22;18929;48.008;10.882;2023-05-24T11:16:11;12.40;99.90
32476;DHT22;18929;48.008;10.882;2023-05-24T11:18:57;13.20;99.90
32476;DHT22;18929;48.008;10.882;2023-05-24T11:21:30;13.70;99.90
32476;DHT22;18929;48.008;10.882;2023-05-24T11:23:57;13.30;99.90
32476;DHT22;18929;48.008;10.882;2023-05-24T11:26:24;12.80;99.90
32476;DHT22;18929;48.008;10.882;2023-05-24T11:28:50;13.20;99.90
32476;DHT22;18929;48.008;10.882;2023-05-24T11:31:17;13.40;99.90
32476;DHT22;18929;48.008;10.882;2023-05-24T11:33:44;13.70;99.90
32476;DHT22;18929;48.008;10.882;2023-05-24T11:36:12;14.00;99.90
32476;DHT22;18929;48.008;10.882;2023-05-24T11:38:39;13.90;99.90
32476;DHT22;18929;48.008;10.882;2023-05-24T11:41:06;13.50;99.90
32476;DHT22;18929;48.008;10.882;2023-05-24T11:43:33;12.80;99.90
32476;DHT22;18929;48.008;10.882;2023-05-24T11:46:00;13.10;99.90
32476;DHT22;18929;48.008;10.882;2023-05-24T11:48:28;13.60;99.90
32476;DHT22;18929;48.008;10.882;2023-05-24T11:50:55;12.90;99.90
32476;DHT22;18929;48.008;10.882;2023-05-24T11:53:23;12.90;99.90
32476;DHT22;18929;48.008;10.882;2023-05-24T11:55:51;13.80;99.90
32476;DHT22;18929;48.008;10.882;2023-05-24T11:58:21;13.90;99.90
32476;DHT22;18929;48.008;10.882;2023-05-24T12:00:48;13.50;99.90
32476;DHT22;18929;48.008;10.882;2023-05-24T12:03:15;13.70;99.90
32476;DHT22;18929;48.008;10.882;2023-05-24T12:05:42;13.60;99.90
32476;DHT22;18929;48.008;10.882;2023-05-24T12:08:09;12.90;99.90
32476;DHT22;18929;48.008;10.882;2023-05-24T12:10:38;13.50;99.90
32476;DHT22;18929;48.008;10.882;2023-05-24T12:13:05;14.10;99.90
32476;DHT22;18929;48.008;10.882;2023-05-24T12:15:32;14.10;99.90
32476;DHT22;18929;48.008;10.882;2023-05-24T12:18:00;13.40;99.90
32476;DHT22;18929;48.008;10.882;2023-05-24T12:20:26;12.90;99.90
32476;DHT22;18929;48.008;10.882;2023-05-24T12:22:54;13.50;99.90
32476;DHT22;18929;48.008;10.882;2023-05-24T12:25:21;13.80;99.90
32476;DHT22;18929;48.008;10.882;2023-05-24T12:27:53;13.00;99.90
32476;DHT22;18929;48.008;10.882;2023-05-24T12:30:21;13.40;99.90
32476;DHT22;18929;48.008;10.882;2023-05-24T12:32:48;13.60;99.90
32476;DHT22;18929;48.008;10.882;2023-05-24T12:35:15;13.60;99.90
32476;DHT22;18929;48.008;10.882;2023-05-24T12:37:42;14.00;99.90
32476;DHT22;18929;48.008;10.882;2023-05-24T12:40:16;14.50;99.90
32476;DHT22;18929;48.008;10.882;2023-05-24T12:42:45;14.80;99.90
32476;DHT22;18929;48.008;10.882;2023-05-24T12:45:16;14.00;99.90
32476;DHT22;18929;48.008;10.882;2023-05-24T12:47:48;12.90;99.90
32476;DHT22;18929;48.008;10.882;2023-05-24T12:50:15;13.30;99.90
32476;DHT22;18929;48.008;10.882;2023-05-24T12:52:42;14.00;99.90
32476;DHT22;18929;48.008;10.882;2023-05-24T12:55:09;14.40;99.90
32476;DHT22;18929;48.008;10.882;2023-05-24T12:57:35;14.80;99.90
32476;DHT22;18929;48.008;10.882;2023-05-24T13:00:03;14.40;99.90
32476;DHT22;18929;48.008;10.882;2023-05-24T13:02:31;14.80;99.90
32476;DHT22;18929;48.008;10.882;2023-05-24T13:04:58;14.70;99.90
32476;DHT22;18929;48.008;10.882;2023-05-24T13:07:24;15.00;99.90
32476;DHT22;18929;48.008;10.882;2023-05-24T13:09:51;15.10;99.90
32476;DHT22;18929;48.008;10.882;2023-05-24T13:12:18;15.10;99.90
32476;DHT22;18929;48.008;10.882;2023-05-24T13:14:45;15.40;99.90
32476;DHT22;18929;48.008;10.882;2023-05-24T13:17:18;15.80;99.90
32476;DHT22;18929;48.008;10.882;2023-05-24T13:19:46;15.00;99.90
32476;DHT22;18929;48.008;10.882;2023-05-24T13:22:13;14.10;99.90
32476;DHT22;18929;48.008;10.882;2023-05-24T13:24:41;13.50;99.90
32476;DHT22;18929;48.008;10.882;2023-05-24T13:27:08;14.40;99.90
32476;DHT22;18929;48.008;10.882;2023-05-24T13:29:35;15.10;99.90
32476;DHT22;18929;48.008;10.882;2023-05-24T13:32:02;14.50;99.90
32476;DHT22;18929;48.008;10.882;2023-05-24T13:34:29;14.50;99.90
32476;DHT22;18929;48.008;10.882;2023-05-24T13:36:58;14.80;99.90
32476;DHT22;18929;48.008;10.882;2023-05-24T13:39:25;15.10;99.90
32476;DHT22;18929;48.008;10.882;2023-05-24T13:41:52;14.50;99.90
32476;DHT22;18929;48.008;10.882;2023-05-24T13:44:19;14.30;99.90
32476;DHT22;18929;48.008;10.882;2023-05-24T13:46:46;14.60;99.90
32476;DHT22;18929;48.008;10.882;2023-05-24T13:49:14;15.30;99.90
32476;DHT22;18929;48.008;10.882;2023-05-24T13:51:41;15.40;99.90
32476;DHT22;18929;48.008;10.882;2023-05-24T13:54:09;15.10;99.90
32476;DHT22;18929;48.008;10.882;2023-05-24T13:56:36;14.50;99.90
32476;DHT22;18929;48.008;10.882;2023-05-24T13:59:04;14.70;99.90
32476;DHT22;18929;48.008;10.882;2023-05-24T14:01:31;14.90;99.90
32476;DHT22;18929;48.008;10.882;2023-05-24T14:03:59;15.30;99.90
32476;DHT22;18929;48.008;10.882;2023-05-24T14:06:26;14.90;99.90
32476;DHT22;18929;48.008;10.882;2023-05-24T14:08:53;14.70;99.90
32476;DHT22;18929;48.008;10.882;2023-05-24T14:11:21;15.30;99.90
32476;DHT22;18929;48.008;10.882;2023-05-24T14:13:49;15.70;99.90
32476;DHT22;18929;48.008;10.882;2023-05-24T14:16:16;15.70;99.90
32476;DHT22;18929;48.008;10.882;2023-05-24T14:18:43;15.70;99.90
32476;DHT22;18929;48.008;10.882;2023-05-24T14:21:10;16.20;99.90
32476;DHT22;18929;48.008;10.882;2023-05-24T14:23:37;16.00;99.90
32476;DHT22;18929;48.008;10.882;2023-05-24T14:26:04;15.80;99.90
32476;DHT22;18929;48.008;10.882;2023-05-24T14:28:32;14.80;99.90
32476;DHT22;18929;48.008;10.882;2023-05-24T14:30:59;15.20;99.90
32476;DHT22;18929;48.008;10.882;2023-05-24T14:33:26;15.70;99.90
32476;DHT22;18929;48.008;10.882;2023-05-24T14:35:53;16.00;99.90
32476;DHT22;18929;48.008;10.882;2023-05-24T14:38:19;16.30;99.90
32476;DHT22;18929;48.008;10.882;2023-05-24T14:40:48;16.60;99.90
32476;DHT22;18929;48.008;10.882;2023-05-24T14:43:15;16.50;99.90
32476;DHT22;18929;48.008;10.882;2023-05-24T14:45:43;15.90;99.90
32476;DHT22;18929;48.008;10.882;2023-05-24T14:48:10;15.70;99.90
32476;DHT22;18929;48.008;10.882;2023-05-24T14:50:37;15.60;99.90
32476;DHT22;18929;48.008;10.882;2023-05-24T14:53:04;15.90;99.90
32476;DHT22;18929;48.008;10.882;2023-05-24T14:55:34;16.10;99.90
32476;DHT22;18929;48.008;10.882;2023-05-24T14:58:01;16.40;99.90
32476;DHT22;18929;48.008;10.882;2023-05-24T15:00:27;15.90;99.90
32476;DHT22;18929;48.008;10.882;2023-05-24T15:02:56;16.50;99.90
32476;DHT22;18929;48.008;10.882;2023-05-24T15:05:23;16.00;99.90
32476;DHT22;18929;48.008;10.882;2023-05-24T15:07:50;15.80;99.90
32476;DHT22;18929;48.008;10.882;2023-05-24T15:10:17;15.70;99.90
32476;DHT22;18929;48.008;10.882;2023-05-24T15:12:43;15.80;99.90
32476;DHT22;18929;48.008;10.882;2023-05-24T15:15:11;15.40;99.90
32476;DHT22;18929;48.008;10.882;2023-05-24T15:17:38;15.00;99.90
32476;DHT22;18929;48.008;10.882;2023-05-24T15:20:07;15.30;99.90